< < Back
Terminal Aerodrome Forecast


Current Version              Previous Versions:   1  2  3  4  5  6  7  8  9  

Terminal Aerodrome Forecast

560
FTUS42 KTAE 170900 AAD
TAFVLD
TAF AMD
KVLD 170941Z 1710/1806 00000KT 3SM BR OVC002
     FM171400 01004KT P6SM SCT010 SCT250
     FM171800 00000KT P6SM SCT040 SCT250
     FM180200 00000KT P6SM SKC=



Latest METAR

887
SAUS70 KWBC 171500 RRC
MTRVLD
METAR KVLD 171453Z 00000KT 10SM FEW120 SCT200 28/22 A2996 RMK AO2 SLP151
T02780222 50006


USA.gov is the U.S. government's official web portal to all federal, state and local government web resources and services.